Time;durP1;ratioP1;P1;durP2;ratioP2;P2;SDS_P1;SDS_P2;PMS_P1;PMS_P2;Temp;Humidity;BMP_temperature;BMP_pressure;BME280_temperature;BME280_humidity;BME280_pressure;Samples;Min_cycle;Max_cycle;Signal;HPM_P1;HPM_P2
2022/05/01 00:01:30;;;;;;;;;;;;;;;;;;5111084;28;876;-74
2022/05/01 00:03:55;;;;;;;;;;;;;;;;;;5112207;28;950;-74
2022/05/01 00:06:21;;;;;;;;;;;;;;;;;;5093974;28;1226;-74
2022/05/01 00:08:46;;;;;;;;;;;;;;;;;;5112053;28;912;-74
2022/05/01 00:11:12;;;;;;;;;;;;;;;;;;5110309;28;1969;-74
2022/05/01 00:13:39;;;;;;;;;;;;;;;;;;5112363;28;968;-74
2022/05/01 00:16:04;;;;;;;;;;;;;;;;;;5112287;28;836;-74
2022/05/01 00:18:30;;;;;;;;;;;;;;;;;;5112008;28;998;-74
2022/05/01 00:20:55;;;;;;;;;;;;;;;;;;5112054;28;825;-74
2022/05/01 00:23:20;;;;;;;;;;;;;;;;;;5111869;28;1019;-74
2022/05/01 00:25:46;;;;;;;;;;;;;;;;;;5110249;28;1185;-74
2022/05/01 00:28:12;;;;;;;;;;;;;;;;;;5111809;28;1010;-74
2022/05/01 00:30:37;;;;;;;;;;;;;;;;;;5112503;28;805;-74
2022/05/01 00:38:31;;;;;;;;;;;;;;;;;;5110645;28;579;-74
2022/05/01 00:40:56;;;;;;;;;;;;;;;;;;5111795;28;769;-74
2022/05/01 00:43:22;;;;;;;;;;;;;;;;;;5110422;28;1343;-74
2022/05/01 00:45:47;;;;;;;;;;;;;;;;;;5111917;28;777;-74
2022/05/01 00:48:12;;;;;;;;;;;;;;;;;;5110408;28;959;-74
2022/05/01 00:50:37;;;;;;;;;;;;;;;;;;5110126;28;955;-74
2022/05/01 00:53:05;;;;;;;;;;;;;;;;;;5111282;28;1951;-74
2022/05/01 00:55:31;;;;;;;;;;;;;;;;;;5110062;28;1186;-74
2022/05/01 00:57:56;;;;;;;;;;;;;;;;;;5111012;28;883;-74
2022/05/01 01:00:21;;;;;;;;;;;;;;;;;;5111115;28;789;-74
2022/05/01 01:02:47;;;;;;;;;;;;;;;;;;5110991;28;982;-74
2022/05/01 01:05:12;;;;;;;;;;;;;;;;;;5109855;28;1253;-74
2022/05/01 01:07:38;;;;;;;;;;;;;;;;;;5109722;28;825;-74
2022/05/01 01:10:04;;;;;;;;;;;;;;;;;;5111199;28;847;-74
2022/05/01 01:15:13;;;;;;;;;;;;;;;;;;5110454;28;1253;-74
2022/05/01 01:17:42;;;;;;;;;;;;;;;;;;5112476;28;1155;-74
2022/05/01 01:20:09;;;;;;;;;;;;;;;;;;5116266;28;1308;-74
2022/05/01 01:22:36;;;;;;;;;;;;;;;;;;5109575;28;1336;-73
2022/05/01 01:25:01;;;;;;;;;;;;;;;;;;5109602;28;840;-74
2022/05/01 01:27:26;;;;;;;;;;;;;;;;;;5109463;28;841;-74
2022/05/01 01:32:39;;;;;;;;;;;;;;;;;;5111001;28;1956;-74
2022/05/01 01:35:05;;;;;;;;;;;;;;;;;;5111030;28;855;-74
2022/05/01 01:37:32;;;;;;;;;;;;;;;;;;5110955;28;1010;-74
2022/05/01 01:39:58;;;;;;;;;;;;;;;;;;5109121;28;1320;-74
2022/05/01 01:42:25;;;;;;;;;;;;;;;;;;5109627;28;828;-74
2022/05/01 01:44:52;;;;;;;;;;;;;;;;;;5111068;28;1062;-74
2022/05/01 01:47:17;;;;;;;;;;;;;;;;;;5110923;28;962;-74
2022/05/01 01:49:42;;;;;;;;;;;;;;;;;;5111265;28;1062;-74
2022/05/01 01:52:08;;;;;;;;;;;;;;;;;;5114623;28;1973;-74
2022/05/01 01:54:33;;;;;;;;;;;;;;;;;;5114573;28;867;-74
2022/05/01 01:56:59;;;;;;;;;;;;;;;;;;5114664;28;887;-74
2022/05/01 01:59:24;;;;;;;;;;;;;;;;;;5113499;28;915;-74
2022/05/01 02:01:49;;;;;;;;;;;;;;;;;;5113446;28;1186;-74
2022/05/01 02:04:15;;;;;;;;;;;;;;;;;;5114563;28;864;-74
2022/05/01 02:06:40;;;;;;;;;;;;;;;;;;5113000;28;864;-74
2022/05/01 02:09:07;;;;;;;;;;;;;;;;;;5112996;28;1319;-74
2022/05/01 02:11:34;;;;;;;;;;;;;;;;;;5114389;28;1906;-74
2022/05/01 02:13:59;;;;;;;;;;;;;;;;;;5112995;28;1294;-74
2022/05/01 02:16:25;;;;;;;;;;;;;;;;;;5113691;28;848;-74
2022/05/01 02:18:51;;;;;;;;;;;;;;;;;;5114762;28;966;-74
2022/05/01 02:21:35;;;;;;;;;;;;;;;;;;5112898;28;1149;-73
2022/05/01 02:24:01;;;;;;;;;;;;;;;;;;5113682;28;880;-73
2022/05/01 02:26:26;;;;;;;;;;;;;;;;;;5112791;28;1099;-74
2022/05/01 02:28:52;;;;;;;;;;;;;;;;;;5113182;28;914;-73
2022/05/01 02:31:18;;;;;;;;;;;;;;;;;;5114183;28;1898;-73
2022/05/01 02:33:43;;;;;;;;;;;;;;;;;;5112474;28;1480;-74
2022/05/01 02:36:09;;;;;;;;;;;;;;;;;;5112982;28;809;-73
2022/05/01 02:38:34;;;;;;;;;;;;;;;;;;5113495;28;828;-73
2022/05/01 02:41:00;;;;;;;;;;;;;;;;;;5113639;28;824;-74
2022/05/01 02:43:28;;;;;;;;;;;;;;;;;;5112239;28;1252;-73
2022/05/01 02:45:54;;;;;;;;;;;;;;;;;;5113902;28;907;-73
2022/05/01 02:48:19;;;;;;;;;;;;;;;;;;5095424;28;1067;-74
2022/05/01 02:50:44;;;;;;;;;;;;;;;;;;5113363;28;1013;-73
2022/05/01 02:53:10;;;;;;;;;;;;;;;;;;5111988;28;1906;-73
2022/05/01 02:55:35;;;;;;;;;;;;;;;;;;5111992;28;807;-73
2022/05/01 02:58:00;;;;;;;;;;;;;;;;;;5113285;28;919;-74
2022/05/01 03:00:26;;;;;;;;;;;;;;;;;;5094554;28;1227;-73
2022/05/01 03:02:55;;;;;;;;;;;;;;;;;;5113451;28;828;-74
2022/05/01 03:05:20;;;;;;;;;;;;;;;;;;5112073;28;1506;-73
2022/05/01 03:07:46;;;;;;;;;;;;;;;;;;5111803;28;1265;-73
2022/05/01 03:10:11;;;;;;;;;;;;;;;;;;5113227;28;1054;-73
2022/05/01 03:12:37;;;;;;;;;;;;;;;;;;5111950;28;1913;-73
2022/05/01 03:15:06;;;;;;;;;;;;;;;;;;5113300;28;891;-73
2022/05/01 03:22:10;;;;;;;;;;;;;;;;;;5113315;28;1220;-73
2022/05/01 03:23:00;;;;;;;;;;;;;;;;;;5113491;28;626;-73
2022/05/01 03:25:26;;;;;;;;;;;;;;;;;;5113226;27;1069;-73
2022/05/01 03:27:52;;;;;;;;;;;;;;;;;;5114621;28;825;-73
2022/05/01 03:30:19;;;;;;;;;;;;;;;;;;5113662;28;892;-73
2022/05/01 03:32:45;;;;;;;;;;;;;;;;;;5114220;27;1898;-73
2022/05/01 03:35:10;;;;;;;;;;;;;;;;;;5113339;28;863;-73
2022/05/01 03:37:36;;;;;;;;;;;;;;;;;;5112677;28;876;-74
2022/05/01 03:40:01;;;;;;;;;;;;;;;;;;5113016;28;1293;-74
2022/05/01 03:42:27;;;;;;;;;;;;;;;;;;5115124;28;840;-74
2022/05/01 03:44:52;;;;;;;;;;;;;;;;;;5113587;28;853;-74
2022/05/01 03:47:18;;;;;;;;;;;;;;;;;;5113302;28;887;-74
2022/05/01 03:49:43;;;;;;;;;;;;;;;;;;5112898;28;926;-73
2022/05/01 03:52:08;;;;;;;;;;;;;;;;;;5113077;28;1972;-73
2022/05/01 03:54:33;;;;;;;;;;;;;;;;;;5114478;28;1095;-74
2022/05/01 03:56:59;;;;;;;;;;;;;;;;;;5114929;28;986;-74
2022/05/01 03:59:24;;;;;;;;;;;;;;;;;;5114622;28;907;-73
2022/05/01 04:01:49;;;;;;;;;;;;;;;;;;5097014;28;1269;-74
2022/05/01 04:04:15;;;;;;;;;;;;;;;;;;5114451;28;1069;-74
2022/05/01 04:06:40;;;;;;;;;;;;;;;;;;5115134;28;990;-73
2022/05/01 04:09:05;;;;;;;;;;;;;;;;;;5113717;28;1049;-73
2022/05/01 04:11:31;;;;;;;;;;;;;;;;;;5114790;28;1969;-73
2022/05/01 04:13:56;;;;;;;;;;;;;;;;;;5112691;27;817;-74
2022/05/01 04:16:21;;;;;;;;;;;;;;;;;;5113124;28;882;-73
2022/05/01 04:18:46;;;;;;;;;;;;;;;;;;5113307;28;805;-73
2022/05/01 04:21:13;;;;;;;;;;;;;;;;;;5115254;28;824;-73
2022/05/01 04:23:38;;;;;;;;;;;;;;;;;;5112995;28;871;-73
2022/05/01 04:26:04;;;;;;;;;;;;;;;;;;5113653;28;852;-73
2022/05/01 04:28:29;;;;;;;;;;;;;;;;;;5113668;28;891;-73
2022/05/01 04:30:55;;;;;;;;;;;;;;;;;;5114267;28;1002;-73
2022/05/01 04:33:21;;;;;;;;;;;;;;;;;;5113197;28;1910;-73
2022/05/01 04:35:47;;;;;;;;;;;;;;;;;;5114258;28;1029;-73
2022/05/01 04:38:13;;;;;;;;;;;;;;;;;;5115141;28;852;-74
2022/05/01 04:40:43;;;;;;;;;;;;;;;;;;5110584;28;1251;-74
2022/05/01 04:43:12;;;;;;;;;;;;;;;;;;5111969;28;820;-74
2022/05/01 04:45:41;;;;;;;;;;;;;;;;;;5111743;28;1237;-74
2022/05/01 04:48:07;;;;;;;;;;;;;;;;;;5111106;28;1160;-74
2022/05/01 04:50:33;;;;;;;;;;;;;;;;;;5109529;28;997;-73
2022/05/01 04:53:02;;;;;;;;;;;;;;;;;;5111115;28;1901;-74
2022/05/01 04:55:30;;;;;;;;;;;;;;;;;;5111618;28;844;-73
2022/05/01 04:57:56;;;;;;;;;;;;;;;;;;5111136;28;891;-74
2022/05/01 05:00:21;;;;;;;;;;;;;;;;;;5111831;28;1061;-74
2022/05/01 05:02:51;;;;;;;;;;;;;;;;;;5112946;28;1380;-73
2022/05/01 05:05:17;;;;;;;;;;;;;;;;;;5111821;28;1290;-74
2022/05/01 05:07:43;;;;;;;;;;;;;;;;;;5112951;28;1441;-73
2022/05/01 05:10:09;;;;;;;;;;;;;;;;;;5112841;28;895;-73
2022/05/01 05:12:35;;;;;;;;;;;;;;;;;;5111185;28;1977;-74
2022/05/01 05:15:01;;;;;;;;;;;;;;;;;;5110614;28;1222;-74
2022/05/01 05:17:27;;;;;;;;;;;;;;;;;;5109016;28;1186;-73
2022/05/01 05:19:53;;;;;;;;;;;;;;;;;;5120526;27;1286;-73
2022/05/01 05:22:19;;;;;;;;;;;;;;;;;;5131816;27;900;-74
2022/05/01 05:24:44;;;;;;;;;;;;;;;;;;5133543;27;788;-73
2022/05/01 05:27:09;;;;;;;;;;;;;;;;;;5134791;27;947;-74
2022/05/01 05:29:35;;;;;;;;;;;;;;;;;;5117058;27;1407;-74
2022/05/01 05:32:00;;;;;;;;;;;;;;;;;;5133631;27;1893;-74
2022/05/01 05:34:26;;;;;;;;;;;;;;;;;;5135521;27;1041;-74
2022/05/01 05:36:51;;;;;;;;;;;;;;;;;;5134615;27;1113;-73
2022/05/01 05:39:16;;;;;;;;;;;;;;;;;;5136271;27;931;-73
2022/05/01 05:41:41;;;;;;;;;;;;;;;;;;5135803;27;1043;-73
2022/05/01 05:44:07;;;;;;;;;;;;;;;;;;5136016;27;899;-74
2022/05/01 05:46:32;;;;;;;;;;;;;;;;;;5136008;27;825;-73
2022/05/01 05:48:57;;;;;;;;;;;;;;;;;;5135211;27;958;-74
2022/05/01 05:51:23;;;;;;;;;;;;;;;;;;5134355;27;1902;-73
2022/05/01 05:53:51;;;;;;;;;;;;;;;;;;5134978;27;1334;-73
2022/05/01 05:56:17;;;;;;;;;;;;;;;;;;5134288;27;1291;-73
2022/05/01 05:58:42;;;;;;;;;;;;;;;;;;5133127;27;1391;-74
2022/05/01 06:01:08;;;;;;;;;;;;;;;;;;5133649;27;801;-73
2022/05/01 06:03:33;;;;;;;;;;;;;;;;;;5116575;27;1381;-73
2022/05/01 06:05:59;;;;;;;;;;;;;;;;;;5132942;27;1364;-74
2022/05/01 06:08:24;;;;;;;;;;;;;;;;;;5133628;27;773;-74
2022/05/01 06:10:50;;;;;;;;;;;;;;;;;;5116124;27;1258;-73
2022/05/01 06:13:15;;;;;;;;;;;;;;;;;;5134949;27;1921;-73
2022/05/01 06:15:43;;;;;;;;;;;;;;;;;;5134708;27;910;-73
2022/05/01 06:18:10;;;;;;;;;;;;;;;;;;5116649;27;1229;-73
2022/05/01 06:20:35;;;;;;;;;;;;;;;;;;5133452;27;1205;-74
2022/05/01 06:23:00;;;;;;;;;;;;;;;;;;5132927;27;1139;-74
2022/05/01 06:25:26;;;;;;;;;;;;;;;;;;5134677;27;1118;-74
2022/05/01 06:27:51;;;;;;;;;;;;;;;;;;5132894;27;883;-73
2022/05/01 06:30:17;;;;;;;;;;;;;;;;;;5115889;27;1467;-73
2022/05/01 06:32:43;;;;;;;;;;;;;;;;;;5132805;27;1973;-73
2022/05/01 06:35:09;;;;;;;;;;;;;;;;;;5132330;27;813;-73
2022/05/01 06:37:35;;;;;;;;;;;;;;;;;;5132601;27;1185;-74
2022/05/01 06:40:00;;;;;;;;;;;;;;;;;;5133849;27;1039;-74
2022/05/01 06:42:25;;;;;;;;;;;;;;;;;;5134735;27;761;-74
2022/05/01 06:44:51;;;;;;;;;;;;;;;;;;5132534;27;1210;-73
2022/05/01 06:47:16;;;;;;;;;;;;;;;;;;5134860;27;844;-74
2022/05/01 06:49:41;;;;;;;;;;;;;;;;;;5135288;27;911;-74
2022/05/01 06:52:06;;;;;;;;;;;;;;;;;;5134082;27;1893;-74
2022/05/01 06:54:32;;;;;;;;;;;;;;;;;;5132825;27;1133;-73
2022/05/01 06:56:57;;;;;;;;;;;;;;;;;;5134088;27;872;-73
2022/05/01 06:59:22;;;;;;;;;;;;;;;;;;5134755;27;906;-74
2022/05/01 07:01:47;;;;;;;;;;;;;;;;;;5134458;27;848;-74
2022/05/01 07:04:13;;;;;;;;;;;;;;;;;;5132377;27;1451;-68
2022/05/01 07:06:40;;;;;;;;;;;;;;;;;;5132382;27;1124;-69
2022/05/01 07:09:05;;;;;;;;;;;;;;;;;;5132281;27;915;-69
2022/05/01 07:11:31;;;;;;;;;;;;;;;;;;5132745;27;1980;-71
2022/05/01 07:13:56;;;;;;;;;;;;;;;;;;5131973;27;729;-70
2022/05/01 07:16:22;;;;;;;;;;;;;;;;;;5133778;27;833;-70
2022/05/01 07:18:47;;;;;;;;;;;;;;;;;;5132039;27;922;-70
2022/05/01 07:21:13;;;;;;;;;;;;;;;;;;5131655;27;1209;-70
2022/05/01 07:23:38;;;;;;;;;;;;;;;;;;5133581;27;777;-70
2022/05/01 07:26:03;;;;;;;;;;;;;;;;;;5114594;27;1329;-70
2022/05/01 07:28:28;;;;;;;;;;;;;;;;;;5133791;27;1034;-70
2022/05/01 07:30:54;;;;;;;;;;;;;;;;;;5114557;27;1228;-70
2022/05/01 07:33:19;;;;;;;;;;;;;;;;;;5132586;27;1897;-70
2022/05/01 07:35:46;;;;;;;;;;;;;;;;;;5133597;27;815;-70
2022/05/01 07:38:11;;;;;;;;;;;;;;;;;;5132202;27;1584;-70
2022/05/01 07:40:36;;;;;;;;;;;;;;;;;;5131886;27;1273;-71
2022/05/01 07:43:02;;;;;;;;;;;;;;;;;;5131420;27;1277;-70
2022/05/01 07:45:27;;;;;;;;;;;;;;;;;;5133929;27;832;-70
2022/05/01 07:47:53;;;;;;;;;;;;;;;;;;5133760;27;911;-70
2022/05/01 07:50:18;;;;;;;;;;;;;;;;;;5133370;27;1225;-70
2022/05/01 07:52:43;;;;;;;;;;;;;;;;;;5133139;27;1962;-70
2022/05/01 07:55:09;;;;;;;;;;;;;;;;;;5114981;27;1223;-70
2022/05/01 07:57:34;;;;;;;;;;;;;;;;;;5131130;27;1174;-70
2022/05/01 07:59:59;;;;;;;;;;;;;;;;;;5113808;27;1300;-69
2022/05/01 08:02:32;;;;;;;;;;;;;;;;;;5132851;27;820;-68
2022/05/01 08:04:57;;;;;;;;;;;;;;;;;;5130913;27;1575;-70
2022/05/01 08:07:23;;;;;;;;;;;;;;;;;;5133380;27;903;-70
2022/05/01 08:09:48;;;;;;;;;;;;;;;;;;5130898;27;1177;-70
2022/05/01 08:12:13;;;;;;;;;;;;;;;;;;5130609;27;1905;-70
2022/05/01 08:14:41;;;;;;;;;;;;;;;;;;5132736;27;895;-70
2022/05/01 08:17:06;;;;;;;;;;;;;;;;;;5131183;27;860;-70
2022/05/01 08:22:16;;;;;;;;;;;;;;;;;;5132717;27;645;-70
2022/05/01 08:24:41;;;;;;;;;;;;;;;;;;5132810;27;954;-70
2022/05/01 08:27:07;;;;;;;;;;;;;;;;;;5132400;27;935;-69
2022/05/01 08:29:37;;;;;;;;;;;;;;;;;;5131195;27;840;-69
2022/05/01 08:32:03;;;;;;;;;;;;;;;;;;5130546;27;1957;-69
2022/05/01 08:34:28;;;;;;;;;;;;;;;;;;5130946;27;1307;-70
2022/05/01 08:36:53;;;;;;;;;;;;;;;;;;5131289;27;1319;-69
2022/05/01 08:39:19;;;;;;;;;;;;;;;;;;5132174;27;812;-70
2022/05/01 08:41:44;;;;;;;;;;;;;;;;;;5130668;27;793;-69
2022/05/01 08:44:13;;;;;;;;;;;;;;;;;;5132021;27;892;-70
2022/05/01 08:46:41;;;;;;;;;;;;;;;;;;5132165;27;856;-69
2022/05/01 08:49:07;;;;;;;;;;;;;;;;;;5130362;27;1196;-69
2022/05/01 08:51:34;;;;;;;;;;;;;;;;;;5130601;27;1881;-70
2022/05/01 08:54:01;;;;;;;;;;;;;;;;;;5131387;27;1389;-70
2022/05/01 08:56:26;;;;;;;;;;;;;;;;;;5131795;27;835;-70
2022/05/01 08:58:52;;;;;;;;;;;;;;;;;;5130319;27;1525;-69
2022/05/01 09:01:17;;;;;;;;;;;;;;;;;;5131703;27;821;-69
2022/05/01 09:03:46;;;;;;;;;;;;;;;;;;5130388;27;1194;-69
2022/05/01 09:06:11;;;;;;;;;;;;;;;;;;5113427;28;1174;-69
2022/05/01 09:08:37;;;;;;;;;;;;;;;;;;5132430;27;816;-69
2022/05/01 09:12:49;;;;;;;;;;;;;;;;;;5130969;27;840;-69
2022/05/01 09:13:48;;;;;;;;;;;;;;;;;;5131762;28;843;-69
2022/05/01 09:16:13;;;;;;;;;;;;;;;;;;5131445;27;911;-69
2022/05/01 09:18:46;;;;;;;;;;;;;;;;;;5130397;28;952;-69
2022/05/01 09:21:12;;;;;;;;;;;;;;;;;;5131887;27;879;-70
2022/05/01 09:23:44;;;;;;;;;;;;;;;;;;5131871;27;833;-70
2022/05/01 09:26:10;;;;;;;;;;;;;;;;;;5131753;27;828;-70
2022/05/01 09:28:37;;;;;;;;;;;;;;;;;;5132046;27;922;-69
2022/05/01 09:31:05;;;;;;;;;;;;;;;;;;5130538;28;974;-69
2022/05/01 09:33:30;;;;;;;;;;;;;;;;;;5130298;28;1969;-69
2022/05/01 09:35:56;;;;;;;;;;;;;;;;;;5131634;27;851;-70
2022/05/01 09:38:28;;;;;;;;;;;;;;;;;;5131119;28;809;-70
2022/05/01 09:40:55;;;;;;;;;;;;;;;;;;5132213;27;839;-70
2022/05/01 09:43:34;;;;;;;;;;;;;;;;;;5131863;27;891;-70
2022/05/01 09:46:12;;;;;;;;;;;;;;;;;;5130635;27;1332;-70
2022/05/01 09:48:37;;;;;;;;;;;;;;;;;;5132154;27;856;-70
2022/05/01 09:51:16;;;;;;;;;;;;;;;;;;5130010;28;1024;-70
2022/05/01 09:53:42;;;;;;;;;;;;;;;;;;5116019;28;2047;-70
2022/05/01 09:56:08;;;;;;;;;;;;;;;;;;5111001;28;828;-70
2022/05/01 09:58:33;;;;;;;;;;;;;;;;;;5110692;28;788;-70
2022/05/01 10:01:06;;;;;;;;;;;;;;;;;;5110079;28;1302;-69
2022/05/01 10:03:31;;;;;;;;;;;;;;;;;;5110135;28;1438;-70
2022/05/01 10:05:58;;;;;;;;;;;;;;;;;;5110585;28;855;-70
2022/05/01 10:08:23;;;;;;;;;;;;;;;;;;5111412;28;933;-70
2022/05/01 10:10:58;;;;;;;;;;;;;;;;;;5111045;28;912;-70
2022/05/01 10:13:25;;;;;;;;;;;;;;;;;;5113983;28;1906;-70
2022/05/01 10:15:52;;;;;;;;;;;;;;;;;;5113504;28;761;-70
2022/05/01 10:18:17;;;;;;;;;;;;;;;;;;5114256;28;853;-71
2022/05/01 10:20:43;;;;;;;;;;;;;;;;;;5113002;28;1141;-70
2022/05/01 10:23:09;;;;;;;;;;;;;;;;;;5113957;28;824;-70
2022/05/01 10:25:37;;;;;;;;;;;;;;;;;;5113881;28;895;-70
2022/05/01 10:28:14;;;;;;;;;;;;;;;;;;5112427;28;1253;-70
2022/05/01 10:34:02;;;;;;;;;;;;;;;;;;5097704;28;1086;-69
2022/05/01 10:36:28;;;;;;;;;;;;;;;;;;5113761;28;1001;-68
2022/05/01 10:39:09;;;;;;;;;;;;;;;;;;5113821;28;777;-70
2022/05/01 10:41:39;;;;;;;;;;;;;;;;;;5114379;28;974;-71
2022/05/01 10:44:04;;;;;;;;;;;;;;;;;;5112314;28;1340;-69
2022/05/01 10:46:31;;;;;;;;;;;;;;;;;;5115289;28;784;-68
2022/05/01 10:49:00;;;;;;;;;;;;;;;;;;5114189;28;817;-69
2022/05/01 10:51:36;;;;;;;;;;;;;;;;;;5096040;28;1964;-68
2022/05/01 10:54:10;;;;;;;;;;;;;;;;;;5113860;28;1099;-69
2022/05/01 10:56:39;;;;;;;;;;;;;;;;;;5113574;28;1045;-68
2022/05/01 10:59:23;;;;;;;;;;;;;;;;;;5112138;28;1295;-68
2022/05/01 11:01:52;;;;;;;;;;;;;;;;;;5114057;28;978;-68
2022/05/01 11:04:19;;;;;;;;;;;;;;;;;;5114160;28;879;-66
2022/05/01 11:06:45;;;;;;;;;;;;;;;;;;5113446;28;1091;-66
2022/05/01 11:09:14;;;;;;;;;;;;;;;;;;5114396;28;879;-67
2022/05/01 11:11:39;;;;;;;;;;;;;;;;;;5113960;28;1914;-67
2022/05/01 11:14:04;;;;;;;;;;;;;;;;;;5113408;28;1146;-65
2022/05/01 11:16:48;;;;;;;;;;;;;;;;;;5114446;28;994;-67
2022/05/01 11:19:13;;;;;;;;;;;;;;;;;;5114945;28;777;-67
2022/05/01 11:21:38;;;;;;;;;;;;;;;;;;5113826;28;946;-68
2022/05/01 11:24:04;;;;;;;;;;;;;;;;;;5114297;28;765;-66
2022/05/01 11:26:30;;;;;;;;;;;;;;;;;;5112297;28;1313;-67
2022/05/01 11:29:09;;;;;;;;;;;;;;;;;;5114379;28;938;-67
2022/05/01 11:31:35;;;;;;;;;;;;;;;;;;5112176;28;1889;-67
2022/05/01 11:34:29;;;;;;;;;;;;;;;;;;5113834;28;789;-67
2022/05/01 11:36:57;;;;;;;;;;;;;;;;;;5099141;28;1562;-67
2022/05/01 11:39:41;;;;;;;;;;;;;;;;;;5114095;28;851;-67
2022/05/01 11:42:29;;;;;;;;;;;;;;;;;;5112305;28;1451;-67
2022/05/01 11:44:56;;;;;;;;;;;;;;;;;;5114260;28;883;-66
2022/05/01 11:47:23;;;;;;;;;;;;;;;;;;5114243;28;842;-67
2022/05/01 11:49:49;;;;;;;;;;;;;;;;;;5113583;28;901;-67
2022/05/01 11:52:16;;;;;;;;;;;;;;;;;;5112158;28;1968;-67
2022/05/01 11:54:46;;;;;;;;;;;;;;;;;;5111963;28;1277;-66
2022/05/01 12:02:44;;;;;;;;;;;;;;;;;;5112496;28;719;-67
2022/05/01 12:05:10;;;;;;;;;;;;;;;;;;5110479;28;1357;-68
2022/05/01 12:07:35;;;;;;;;;;;;;;;;;;5112335;28;880;-68
2022/05/01 12:10:01;;;;;;;;;;;;;;;;;;5111931;28;768;-68
2022/05/01 12:12:27;;;;;;;;;;;;;;;;;;5112345;28;2032;-67
2022/05/01 12:14:52;;;;;;;;;;;;;;;;;;5111787;28;1050;-68
2022/05/01 12:17:21;;;;;;;;;;;;;;;;;;5111257;28;769;-68
2022/05/01 12:19:48;;;;;;;;;;;;;;;;;;5093692;28;1470;-68
2022/05/01 12:22:17;;;;;;;;;;;;;;;;;;5110445;28;1294;-68
2022/05/01 12:24:43;;;;;;;;;;;;;;;;;;5111875;28;856;-68
2022/05/01 12:27:09;;;;;;;;;;;;;;;;;;5110220;28;1154;-69
2022/05/01 12:29:36;;;;;;;;;;;;;;;;;;5111862;28;824;-69
2022/05/01 12:32:01;;;;;;;;;;;;;;;;;;5110049;28;1901;-69
2022/05/01 12:34:27;;;;;;;;;;;;;;;;;;5111180;28;765;-69
2022/05/01 12:36:57;;;;;;;;;;;;;;;;;;5088528;28;1520;-69
2022/05/01 12:39:23;;;;;;;;;;;;;;;;;;5091377;28;821;-69
2022/05/01 12:45:05;;;;;;;;;;;;;;;;;;5085910;28;1496;-69
2022/05/01 12:47:31;;;;;;;;;;;;;;;;;;5091463;28;1104;-69
2022/05/01 12:49:57;;;;;;;;;;;;;;;;;;5090568;28;1001;-69
2022/05/01 12:52:35;;;;;;;;;;;;;;;;;;5091862;28;1914;-69
2022/05/01 12:55:05;;;;;;;;;;;;;;;;;;5089801;28;1368;-69
2022/05/01 12:57:31;;;;;;;;;;;;;;;;;;5091286;28;900;-69
2022/05/01 12:59:56;;;;;;;;;;;;;;;;;;5090994;28;919;-69
2022/05/01 13:02:22;;;;;;;;;;;;;;;;;;5091540;28;860;-69
2022/05/01 13:04:56;;;;;;;;;;;;;;;;;;5091117;28;1026;-69
2022/05/01 13:07:31;;;;;;;;;;;;;;;;;;5091576;28;872;-69
2022/05/01 13:09:56;;;;;;;;;;;;;;;;;;5090249;28;950;-69
2022/05/01 13:12:34;;;;;;;;;;;;;;;;;;5106450;28;1973;-69
2022/05/01 13:15:02;;;;;;;;;;;;;;;;;;5090754;28;848;-69
2022/05/01 13:17:28;;;;;;;;;;;;;;;;;;5091472;28;833;-69
2022/05/01 13:19:53;;;;;;;;;;;;;;;;;;5089016;28;1241;-68
2022/05/01 13:22:19;;;;;;;;;;;;;;;;;;5091044;28;966;-69
2022/05/01 13:24:44;;;;;;;;;;;;;;;;;;5089402;28;1259;-69
2022/05/01 13:27:11;;;;;;;;;;;;;;;;;;5089298;28;1320;-69
2022/05/01 13:29:37;;;;;;;;;;;;;;;;;;5091174;28;782;-69
2022/05/01 13:32:05;;;;;;;;;;;;;;;;;;5105945;28;1977;-69
2022/05/01 13:34:30;;;;;;;;;;;;;;;;;;5106402;28;1384;-69
2022/05/01 13:36:56;;;;;;;;;;;;;;;;;;5088780;28;1074;-69
2022/05/01 13:39:22;;;;;;;;;;;;;;;;;;5091152;28;784;-68
2022/05/01 13:44:48;;;;;;;;;;;;;;;;;;5090115;28;761;-69
2022/05/01 13:47:14;;;;;;;;;;;;;;;;;;5110144;28;1098;-69
2022/05/01 13:49:40;;;;;;;;;;;;;;;;;;5094516;28;1041;-69
2022/05/01 13:52:06;;;;;;;;;;;;;;;;;;5109868;28;1964;-69
2022/05/01 13:54:31;;;;;;;;;;;;;;;;;;5094619;28;1278;-69
2022/05/01 13:56:57;;;;;;;;;;;;;;;;;;5094289;28;868;-69
2022/05/01 13:59:22;;;;;;;;;;;;;;;;;;5093080;28;857;-69
2022/05/01 14:01:51;;;;;;;;;;;;;;;;;;5094477;28;947;-69
2022/05/01 14:04:17;;;;;;;;;;;;;;;;;;5109993;28;1467;-69
2022/05/01 14:06:42;;;;;;;;;;;;;;;;;;5094259;28;895;-69
2022/05/01 14:09:08;;;;;;;;;;;;;;;;;;5092726;28;1166;-69
2022/05/01 14:11:33;;;;;;;;;;;;;;;;;;5093013;28;1976;-69
2022/05/01 14:13:58;;;;;;;;;;;;;;;;;;5093602;28;848;-69
2022/05/01 14:16:24;;;;;;;;;;;;;;;;;;5094509;28;595;-69
2022/05/01 14:18:50;;;;;;;;;;;;;;;;;;5092545;28;1300;-69
2022/05/01 14:21:16;;;;;;;;;;;;;;;;;;5094745;28;825;-69
2022/05/01 14:23:42;;;;;;;;;;;;;;;;;;5094295;28;836;-69
2022/05/01 14:26:07;;;;;;;;;;;;;;;;;;5092660;28;1277;-70
2022/05/01 14:28:33;;;;;;;;;;;;;;;;;;5092904;28;883;-69
2022/05/01 14:31:08;;;;;;;;;;;;;;;;;;5092117;28;1135;-69
2022/05/01 14:33:44;;;;;;;;;;;;;;;;;;5094070;28;1898;-69
2022/05/01 14:36:12;;;;;;;;;;;;;;;;;;5093555;28;852;-69
2022/05/01 14:38:44;;;;;;;;;;;;;;;;;;5093835;28;766;-69
2022/05/01 14:41:12;;;;;;;;;;;;;;;;;;5093971;28;864;-69
2022/05/01 14:43:39;;;;;;;;;;;;;;;;;;5093733;28;1065;-69
2022/05/01 14:46:07;;;;;;;;;;;;;;;;;;5091637;28;1221;-70
2022/05/01 14:48:36;;;;;;;;;;;;;;;;;;5093418;28;994;-69
2022/05/01 14:51:02;;;;;;;;;;;;;;;;;;5091567;28;1005;-68
2022/05/01 14:53:28;;;;;;;;;;;;;;;;;;5093229;28;1914;-68
2022/05/01 14:55:54;;;;;;;;;;;;;;;;;;5093487;28;1018;-68
2022/05/01 15:06:38;;;;;;;;;;;;;;;;;;5093382;28;700;-68
2022/05/01 15:09:04;;;;;;;;;;;;;;;;;;5093134;28;887;-68
2022/05/01 15:11:30;;;;;;;;;;;;;;;;;;5093412;28;942;-68
2022/05/01 15:13:56;;;;;;;;;;;;;;;;;;5093018;28;919;-68
2022/05/01 15:16:34;;;;;;;;;;;;;;;;;;5093483;28;821;-68
2022/05/01 15:19:20;;;;;;;;;;;;;;;;;;5091667;28;1346;-68
2022/05/01 15:22:22;;;;;;;;;;;;;;;;;;5092951;28;770;-68
2022/05/01 15:24:51;;;;;;;;;;;;;;;;;;5092917;28;844;-68
2022/05/01 15:27:29;;;;;;;;;;;;;;;;;;5108512;28;1554;-68
2022/05/01 15:29:56;;;;;;;;;;;;;;;;;;5092598;28;853;-68
2022/05/01 15:32:25;;;;;;;;;;;;;;;;;;5092392;28;1953;-68
2022/05/01 15:34:55;;;;;;;;;;;;;;;;;;5108139;28;1224;-68
2022/05/01 15:37:22;;;;;;;;;;;;;;;;;;5108678;28;1329;-68
2022/05/01 15:39:58;;;;;;;;;;;;;;;;;;5107808;28;1453;-69
2022/05/01 15:42:24;;;;;;;;;;;;;;;;;;5091115;28;1325;-69
2022/05/01 15:44:52;;;;;;;;;;;;;;;;;;5091099;28;1316;-70
2022/05/01 15:47:18;;;;;;;;;;;;;;;;;;5108130;28;1341;-68
2022/05/01 15:55:13;;;;;;;;;;;;;;;;;;5091997;28;697;-68
2022/05/01 15:57:39;;;;;;;;;;;;;;;;;;5092986;28;864;-68
2022/05/01 16:00:17;;;;;;;;;;;;;;;;;;5092153;28;903;-68
2022/05/01 16:02:45;;;;;;;;;;;;;;;;;;5091146;28;1323;-68
2022/05/01 16:05:11;;;;;;;;;;;;;;;;;;5092322;28;915;-68
2022/05/01 16:07:45;;;;;;;;;;;;;;;;;;5090459;28;1317;-68
2022/05/01 16:10:13;;;;;;;;;;;;;;;;;;5089935;28;1274;-68
2022/05/01 16:12:39;;;;;;;;;;;;;;;;;;5092398;28;1919;-68
2022/05/01 16:15:05;;;;;;;;;;;;;;;;;;5091053;28;1293;-69
2022/05/01 16:17:33;;;;;;;;;;;;;;;;;;5092478;28;849;-68
2022/05/01 16:19:59;;;;;;;;;;;;;;;;;;5090176;28;1438;-68
2022/05/01 16:22:29;;;;;;;;;;;;;;;;;;5092402;28;877;-68
2022/05/01 16:24:56;;;;;;;;;;;;;;;;;;5091927;28;900;-69
2022/05/01 16:27:38;;;;;;;;;;;;;;;;;;5091371;28;782;-68
2022/05/01 16:30:08;;;;;;;;;;;;;;;;;;5091666;28;935;-68
2022/05/01 16:32:36;;;;;;;;;;;;;;;;;;5091125;28;1914;-68
2022/05/01 16:35:08;;;;;;;;;;;;;;;;;;5091883;28;773;-69
2022/05/01 16:37:47;;;;;;;;;;;;;;;;;;5090491;28;1222;-68
2022/05/01 16:40:16;;;;;;;;;;;;;;;;;;5091604;28;842;-68
2022/05/01 16:42:41;;;;;;;;;;;;;;;;;;5091779;28;849;-67
2022/05/01 16:45:07;;;;;;;;;;;;;;;;;;5090116;28;1163;-69
2022/05/01 16:47:34;;;;;;;;;;;;;;;;;;5091597;28;912;-69
2022/05/01 16:50:00;;;;;;;;;;;;;;;;;;5091511;28;920;-68
2022/05/01 16:52:26;;;;;;;;;;;;;;;;;;5091641;28;1894;-68
2022/05/01 16:54:53;;;;;;;;;;;;;;;;;;5107042;28;1309;-69
2022/05/01 16:57:21;;;;;;;;;;;;;;;;;;5091415;28;793;-69
2022/05/01 16:59:46;;;;;;;;;;;;;;;;;;5091558;28;864;-69
2022/05/01 17:02:25;;;;;;;;;;;;;;;;;;5091573;28;896;-68
2022/05/01 17:05:02;;;;;;;;;;;;;;;;;;5091911;28;770;-68
2022/05/01 17:07:48;;;;;;;;;;;;;;;;;;5091411;28;848;-69
2022/05/01 17:10:33;;;;;;;;;;;;;;;;;;5083547;28;1476;-68
2022/05/01 17:13:08;;;;;;;;;;;;;;;;;;5090663;28;1897;-68
2022/05/01 17:15:35;;;;;;;;;;;;;;;;;;5091959;28;833;-69
2022/05/01 17:18:08;;;;;;;;;;;;;;;;;;5091605;28;903;-68
2022/05/01 17:20:37;;;;;;;;;;;;;;;;;;5093313;28;801;-68
2022/05/01 17:23:03;;;;;;;;;;;;;;;;;;5095789;28;863;-68
2022/05/01 17:25:35;;;;;;;;;;;;;;;;;;5095275;28;829;-68
2022/05/01 17:28:01;;;;;;;;;;;;;;;;;;5094334;28;967;-69
2022/05/01 17:30:44;;;;;;;;;;;;;;;;;;5094440;28;765;-69
2022/05/01 17:33:28;;;;;;;;;;;;;;;;;;5110641;28;1964;-68
2022/05/01 17:35:55;;;;;;;;;;;;;;;;;;5095235;28;849;-68
2022/05/01 17:38:24;;;;;;;;;;;;;;;;;;5095445;28;848;-69
2022/05/01 17:40:49;;;;;;;;;;;;;;;;;;5093601;28;1247;-69
2022/05/01 17:43:18;;;;;;;;;;;;;;;;;;5094650;28;931;-68
2022/05/01 17:45:44;;;;;;;;;;;;;;;;;;5096884;28;923;-68
2022/05/01 17:48:10;;;;;;;;;;;;;;;;;;5097275;28;766;-69
2022/05/01 17:50:36;;;;;;;;;;;;;;;;;;5098969;28;1024;-68
2022/05/01 17:53:02;;;;;;;;;;;;;;;;;;5098287;28;1906;-69
2022/05/01 17:55:29;;;;;;;;;;;;;;;;;;5096106;28;832;-70
2022/05/01 17:57:55;;;;;;;;;;;;;;;;;;5113269;28;1368;-69
2022/05/01 18:00:20;;;;;;;;;;;;;;;;;;5099802;28;845;-71